Sunday, May 27, 2018, 3:28 PM GMT
Back to Local

CYHU, Saint Hubert Airport

Location: , , Canada Lat: 45.517
Local Time: 3:28 PM GMT (15:28 GMT) Lon: -73.417
Time Zone: GMT Elev: 88 ft

Show me the last for .
Show Decoded

2018-05-27 15:00 METAR CYHU 271500Z AUTO 14008KT 9SM FEW048 BKN060 BKN150 20/12 A3006 RMK SLP181
                 DENSITY ALT 500FT =
2018-05-27 14:00 METAR CYHU 271400Z AUTO 09005KT 030V110 9SM BKN060 OVC140 18/11 A3006 RMK SLP181
                 DENSITY ALT 300FT =
2018-05-27 13:00 METAR CYHU 271300Z AUTO 02007KT 9SM OVC041 15/09 A3005 RMK SLP179 =
2018-05-27 12:00 METAR CYHU 271200Z AUTO 01007KT 9SM OVC039 13/08 A3005 RMK SLP176 =
2018-05-27 11:00 METAR CYHU 271100Z AUTO 01007KT 9SM BKN034 13/07 A3003 RMK SLP170 =
2018-05-27 10:00 METAR CYHU 271000Z AUTO 01008KT 9SM SCT190 BKN210 BKN230 11/06 A3002 RMK SLP166
                 =
2018-05-27 09:00 METAR CYHU 270900Z AUTO 01008KT 9SM BKN049 OVC210 11/06 A3002 RMK SLP167 =
2018-05-27 08:00 METAR CYHU 270800Z AUTO 01007KT 9SM BKN220 OVC240 11/06 A3001 RMK SLP163 =
2018-05-27 07:00 METAR CYHU 270700Z AUTO 02008KT 9SM BKN220 BKN240 11/06 A3000 RMK SLP160 =
2018-05-27 06:00 METAR CYHU 270600Z AUTO 02010KT 9SM FEW210 BKN250 11/06 A2999 RMK SLP159 =
2018-05-27 05:00 METAR CYHU 270500Z AUTO 03008KT 9SM CLR 11/05 A3000 RMK SLP160 =
2018-05-27 04:00 METAR CYHU 270400Z AUTO 03008KT 9SM SCT240 12/06 A2999 RMK SLP158 =
2018-05-27 03:00 METAR CYHU 270300Z AUTO 03007KT 9SM BKN240 14/06 A2998 RMK SLP154 =
2018-05-27 02:00 METAR CYHU 270200Z AUTO 05006KT 9SM BKN230 14/06 A2996 RMK SLP148 =
2018-05-27 01:00 METAR CYHU 270100Z AUTO 05006KT 9SM SCT210 OVC230 16/06 A2994 RMK SLP140 DENSITY
                 ALT 200FT =
2018-05-27 00:00 METAR CYHU 270000Z AUTO 07006KT 9SM BKN230 19/06 A2991 RMK SLP132 DENSITY ALT
                 500FT =
2018-05-26 23:00 METAR CYHU 262300Z AUTO 05006KT 9SM BKN220 20/08 A2989 RMK SLP125 DENSITY ALT
                 600FT =
2018-05-26 22:00 METAR CYHU 262200Z AUTO 05010KT 9SM BKN230 22/04 A2988 RMK SLP120 DENSITY ALT
                 900FT =
2018-05-26 21:00 METAR CYHU 262100Z AUTO 05008KT 9SM BKN230 23/04 A2987 RMK SLP116 DENSITY ALT
                 1000FT =
2018-05-26 20:00 METAR CYHU 262000Z AUTO 08008KT 9SM BKN230 22/10 A2985 RMK SLP111 DENSITY ALT
                 1000FT =
2018-05-26 19:00 METAR CYHU 261900Z AUTO 08004KT 030V090 9SM BKN220 22/11 A2984 RMK SLP107
                 DENSITY ALT 1000FT =
2018-05-26 18:00 METAR CYHU 261800Z AUTO 03009KT 9SM BKN210 21/11 A2983 RMK SLP102 DENSITY ALT
                 900FT =
2018-05-26 17:00 METAR CYHU 261700Z AUTO 05011KT 9SM SCT200 BKN220 20/10 A2982 RMK SLP100 DENSITY
                 ALT 800FT =
2018-05-26 16:00 METAR CYHU 261600Z AUTO 03007KT 9SM OVC028 18/14 A2981 RMK SLP096 DENSITY ALT
                 500FT =
2018-05-26 15:30 METAR CYHU 261530Z AUTO 05006KT 9SM OVC026 17/14 A2980 RMK SLP093 DENSITY ALT
                 500FT =

Support USWX by starting your Amazon purchase here.